createdAt,value
2023-05-17T00:01:51.750Z,10.20
2023-05-17T00:04:19.741Z,10.20
2023-05-17T00:06:47.699Z,10.30
2023-05-17T00:09:15.824Z,10.30
2023-05-17T00:11:43.853Z,10.30
2023-05-17T00:14:13.381Z,10.30
2023-05-17T00:16:41.398Z,10.30
2023-05-17T00:19:10.444Z,10.40
2023-05-17T00:21:38.623Z,10.30
2023-05-17T00:24:07.359Z,10.30
2023-05-17T00:26:35.359Z,10.30
2023-05-17T00:29:03.588Z,10.30
2023-05-17T00:31:32.896Z,10.30
2023-05-17T00:34:00.825Z,10.30
2023-05-17T00:36:28.899Z,10.30
2023-05-17T00:38:56.862Z,10.40
2023-05-17T00:41:24.801Z,10.30
2023-05-17T00:43:52.934Z,10.40
2023-05-17T00:46:20.896Z,10.30
2023-05-17T00:48:50.482Z,10.40
2023-05-17T00:51:22.050Z,10.80
2023-05-17T00:53:50.558Z,10.40
2023-05-17T00:56:18.799Z,10.40
2023-05-17T00:58:46.895Z,10.40
2023-05-17T01:01:15.442Z,10.40
2023-05-17T01:03:43.948Z,10.40
2023-05-17T01:06:13.426Z,10.80
2023-05-17T01:08:41.495Z,10.50
2023-05-17T01:11:18.869Z,10.40
2023-05-17T01:13:53.977Z,10.40
2023-05-17T01:16:31.004Z,10.40
2023-05-17T01:19:08.872Z,10.40
2023-05-17T01:21:58.472Z,10.40
2023-05-17T01:24:31.190Z,10.40
2023-05-17T01:27:01.474Z,10.40
2023-05-17T01:29:30.825Z,10.40
2023-05-17T01:32:00.718Z,10.40
2023-05-17T01:34:29.344Z,10.40
2023-05-17T01:36:58.040Z,10.50
2023-05-17T01:39:26.049Z,10.50
2023-05-17T01:42:03.556Z,10.50
2023-05-17T01:44:37.889Z,10.50
2023-05-17T01:47:14.650Z,10.50
2023-05-17T01:49:46.026Z,10.40
2023-05-17T01:52:19.718Z,10.40
2023-05-17T01:54:55.300Z,10.70
2023-05-17T01:57:29.762Z,10.40
2023-05-17T02:00:03.130Z,10.40
2023-05-17T02:02:31.560Z,10.40
2023-05-17T02:04:59.526Z,10.60
2023-05-17T02:07:27.525Z,10.50
2023-05-17T02:09:55.530Z,10.50
2023-05-17T02:12:25.403Z,10.40
2023-05-17T02:14:53.355Z,10.90
2023-05-17T02:17:21.279Z,10.50
2023-05-17T02:19:49.259Z,10.50
2023-05-17T02:22:17.301Z,10.50
2023-05-17T02:24:46.729Z,10.50
2023-05-17T02:27:14.673Z,10.50
2023-05-17T02:29:43.911Z,10.60
2023-05-17T02:32:12.069Z,10.60
2023-05-17T02:34:39.991Z,10.60
2023-05-17T02:37:07.897Z,10.60
2023-05-17T02:39:35.917Z,10.60
2023-05-17T02:42:03.875Z,10.60
2023-05-17T02:44:31.783Z,10.60
2023-05-17T02:47:01.034Z,10.60
2023-05-17T02:49:29.043Z,10.60
2023-05-17T02:51:57.190Z,10.70
2023-05-17T02:54:25.330Z,10.60
2023-05-17T02:56:53.457Z,10.70
2023-05-17T02:59:21.400Z,10.80
2023-05-17T03:01:50.187Z,10.80
2023-05-17T03:04:20.326Z,10.70
2023-05-17T03:06:48.403Z,10.70
2023-05-17T03:09:16.385Z,10.70
2023-05-17T03:11:44.561Z,10.70
2023-05-17T03:14:12.563Z,10.70
2023-05-17T03:16:40.582Z,10.70
2023-05-17T03:19:08.822Z,10.70
2023-05-17T03:21:38.320Z,10.70
2023-05-17T03:24:07.233Z,10.70
2023-05-17T03:26:35.250Z,10.70
2023-05-17T03:29:03.227Z,10.70
2023-05-17T03:31:31.223Z,10.70
2023-05-17T03:33:59.283Z,11.20
2023-05-17T03:36:27.297Z,10.70
2023-05-17T03:38:56.627Z,10.80
2023-05-17T03:41:24.709Z,10.60
2023-05-17T03:43:52.694Z,10.60
2023-05-17T03:46:20.638Z,10.60
2023-05-17T03:48:48.641Z,10.50
2023-05-17T03:51:16.990Z,10.50
2023-05-17T03:53:44.950Z,10.60
2023-05-17T03:56:15.880Z,10.50
2023-05-17T03:58:43.867Z,10.60
2023-05-17T04:01:12.001Z,10.50
2023-05-17T04:03:40.022Z,10.50
2023-05-17T04:06:08.486Z,10.60
2023-05-17T04:08:36.626Z,10.60
2023-05-17T04:11:10.378Z,10.60
2023-05-17T04:13:40.208Z,10.70
2023-05-17T04:16:09.166Z,10.60
2023-05-17T04:18:38.424Z,10.60
2023-05-17T04:21:06.877Z,10.50
2023-05-17T04:23:35.432Z,10.50
2023-05-17T04:26:04.265Z,10.50
2023-05-17T04:28:32.549Z,10.50
2023-05-17T04:31:02.106Z,10.70
2023-05-17T04:33:30.189Z,10.70
2023-05-17T04:35:58.310Z,11.20
2023-05-17T04:38:26.300Z,10.60
2023-05-17T04:40:54.364Z,10.70
2023-05-17T04:43:22.320Z,10.70
2023-05-17T04:45:50.410Z,10.80
2023-05-17T04:48:20.830Z,10.70
2023-05-17T04:50:48.940Z,10.70
2023-05-17T04:53:16.863Z,10.70
2023-05-17T04:55:44.952Z,11.30
2023-05-17T04:58:13.092Z,10.60
2023-05-17T05:00:41.073Z,10.60
2023-05-17T05:03:09.229Z,10.60
2023-05-17T05:05:38.659Z,10.70
2023-05-17T05:08:06.645Z,10.70
2023-05-17T05:10:34.529Z,10.60
2023-05-17T05:13:02.488Z,10.60
2023-05-17T05:15:30.740Z,10.60
2023-05-17T05:17:58.915Z,11.30
2023-05-17T05:20:28.112Z,10.60
2023-05-17T05:22:58.530Z,10.60
2023-05-17T05:25:26.724Z,10.80
2023-05-17T05:27:54.873Z,10.70
2023-05-17T05:30:22.954Z,10.60
2023-05-17T05:32:51.199Z,10.60
2023-05-17T05:35:19.798Z,10.60
2023-05-17T05:37:47.748Z,10.60
2023-05-17T05:40:17.451Z,10.60
2023-05-17T05:42:45.437Z,10.60
2023-05-17T05:45:13.719Z,10.60
2023-05-17T05:47:41.767Z,10.60
2023-05-17T05:50:11.089Z,10.70
2023-05-17T05:52:39.106Z,10.70
2023-05-17T05:55:07.944Z,10.70
2023-05-17T05:57:37.349Z,10.80
2023-05-17T06:00:06.131Z,10.80
2023-05-17T06:02:34.943Z,10.80
2023-05-17T06:05:03.865Z,10.80
2023-05-17T06:07:31.781Z,10.90
2023-05-17T06:09:59.711Z,10.90
2023-05-17T06:12:27.807Z,10.90
2023-05-17T06:14:57.122Z,10.90
2023-05-17T06:17:25.118Z,10.90
2023-05-17T06:19:53.107Z,10.90
2023-05-17T06:22:21.599Z,10.90
2023-05-17T06:24:49.508Z,11.00
2023-05-17T06:27:17.438Z,11.00
2023-05-17T06:29:45.372Z,11.10
2023-05-17T06:32:14.777Z,11.20
2023-05-17T06:34:42.709Z,11.30
2023-05-17T06:37:10.767Z,11.40
2023-05-17T06:39:38.890Z,11.40
2023-05-17T06:42:07.086Z,11.50
2023-05-17T06:44:35.175Z,11.70
2023-05-17T06:47:03.310Z,11.70
2023-05-17T06:49:32.558Z,11.70
2023-05-17T06:52:03.559Z,11.70
2023-05-17T06:54:31.603Z,11.80
2023-05-17T06:57:01.550Z,11.80
2023-05-17T06:59:29.555Z,11.90
2023-05-17T07:02:00.003Z,11.90
2023-05-17T07:04:28.129Z,12.00
2023-05-17T07:06:57.565Z,12.00
2023-05-17T07:09:25.554Z,12.10
2023-05-17T07:11:53.551Z,12.20
2023-05-17T07:14:21.455Z,12.10
2023-05-17T07:16:49.435Z,12.20
2023-05-17T07:19:17.584Z,12.20
2023-05-17T07:21:46.496Z,12.10
2023-05-17T07:24:15.949Z,12.10
2023-05-17T07:26:44.059Z,12.10
2023-05-17T07:29:13.698Z,12.00
2023-05-17T07:31:41.614Z,12.00
2023-05-17T07:34:09.622Z,12.50
2023-05-17T07:36:37.777Z,12.20
2023-05-17T07:39:06.279Z,12.30
2023-05-17T07:41:36.076Z,12.40
2023-05-17T07:44:04.083Z,12.30
2023-05-17T07:46:32.133Z,13.00
2023-05-17T07:49:00.204Z,12.30
2023-05-17T07:51:28.265Z,12.20
2023-05-17T07:53:56.362Z,12.30
2023-05-17T07:56:24.375Z,12.40
2023-05-17T07:58:54.288Z,12.40
2023-05-17T08:01:24.321Z,12.40
2023-05-17T08:03:52.379Z,12.40
2023-05-17T08:06:20.578Z,12.30
2023-05-17T08:08:48.530Z,12.20
2023-05-17T08:11:16.827Z,12.30
2023-05-17T08:13:44.921Z,12.40
2023-05-17T08:16:15.014Z,12.50
2023-05-17T08:18:43.887Z,12.50
2023-05-17T08:21:17.044Z,12.60
2023-05-17T08:23:46.263Z,12.50
2023-05-17T08:26:17.661Z,12.60
2023-05-17T08:28:45.683Z,12.60
2023-05-17T08:31:20.200Z,12.60
2023-05-17T08:33:48.164Z,12.60
2023-05-17T08:36:21.617Z,12.70
2023-05-17T08:38:49.725Z,12.70
2023-05-17T08:41:17.770Z,12.90
2023-05-17T08:43:46.048Z,12.80
2023-05-17T08:46:16.778Z,13.00
2023-05-17T08:48:46.953Z,13.10
2023-05-17T08:51:16.261Z,12.90
2023-05-17T08:53:47.102Z,12.90
2023-05-17T08:56:18.633Z,13.00
2023-05-17T08:58:56.594Z,13.00
2023-05-17T09:01:29.407Z,12.90
2023-05-17T09:04:01.296Z,13.00
2023-05-17T09:06:31.048Z,13.10
2023-05-17T09:09:01.489Z,13.10
2023-05-17T09:11:31.279Z,13.10
2023-05-17T09:14:03.538Z,13.20
2023-05-17T09:16:35.012Z,13.30
2023-05-17T09:19:04.844Z,13.30
2023-05-17T09:21:34.010Z,13.30
2023-05-17T09:24:07.084Z,13.40
2023-05-17T09:26:40.821Z,13.40
2023-05-17T09:29:11.828Z,13.60
2023-05-17T09:31:41.668Z,13.60
2023-05-17T09:34:10.304Z,13.60
2023-05-17T09:36:39.678Z,13.70
2023-05-17T09:39:12.108Z,13.80
2023-05-17T09:41:48.187Z,13.90
2023-05-17T09:44:22.379Z,14.10
2023-05-17T09:46:52.863Z,13.90
2023-05-17T09:49:23.506Z,14.10
2023-05-17T09:51:51.596Z,14.30
2023-05-17T09:54:19.642Z,14.30
2023-05-17T09:56:54.772Z,14.30
2023-05-17T09:59:25.408Z,14.40
2023-05-17T10:01:55.132Z,14.50
2023-05-17T10:04:25.718Z,14.50
2023-05-17T10:06:55.029Z,14.60
2023-05-17T10:09:24.118Z,14.70
2023-05-17T10:11:53.917Z,14.80
2023-05-17T10:14:28.097Z,14.90
2023-05-17T10:17:11.917Z,15.00
2023-05-17T10:19:42.570Z,15.00
2023-05-17T10:22:21.546Z,15.00
2023-05-17T10:24:52.313Z,15.10
2023-05-17T10:27:30.341Z,15.10
2023-05-17T10:30:01.401Z,15.10
2023-05-17T10:32:31.710Z,15.30
2023-05-17T10:35:11.378Z,15.50
2023-05-17T10:37:41.438Z,15.60
2023-05-17T10:40:13.575Z,15.60
2023-05-17T10:42:44.501Z,15.70
2023-05-17T10:45:13.768Z,15.90
2023-05-17T10:47:46.051Z,15.80
2023-05-17T10:50:15.324Z,16.00
2023-05-17T10:52:48.113Z,16.10
2023-05-17T10:55:20.688Z,16.40
2023-05-17T10:58:15.986Z,16.40
2023-05-17T11:00:46.120Z,16.30
2023-05-17T11:03:17.706Z,16.20
2023-05-17T11:06:06.593Z,16.40
2023-05-17T11:08:46.109Z,16.60
2023-05-17T11:11:15.228Z,16.60
2023-05-17T11:13:48.112Z,16.60
2023-05-17T11:16:18.201Z,16.70
2023-05-17T11:18:52.417Z,16.90
2023-05-17T11:21:21.394Z,17.10
2023-05-17T11:23:56.178Z,17.10
2023-05-17T11:26:27.772Z,17.00
2023-05-17T11:29:03.059Z,17.20
2023-05-17T11:31:32.529Z,17.10
2023-05-17T11:34:04.135Z,17.30
2023-05-17T11:36:32.899Z,17.40
2023-05-17T11:39:17.161Z,17.40
2023-05-17T11:41:50.176Z,17.70
2023-05-17T11:44:25.207Z,17.50
2023-05-17T11:47:01.326Z,17.60
2023-05-17T11:49:36.129Z,17.80
2023-05-17T11:52:04.979Z,18.10
2023-05-17T11:54:33.472Z,17.90
2023-05-17T11:57:02.818Z,18.00
2023-05-17T11:59:30.929Z,18.00
2023-05-17T12:01:58.810Z,18.20
2023-05-17T12:04:28.326Z,18.70
2023-05-17T12:07:01.477Z,18.40
2023-05-17T12:09:31.497Z,19.50
2023-05-17T12:12:04.617Z,19.00
2023-05-17T12:14:32.950Z,18.80
2023-05-17T12:17:02.786Z,19.00
2023-05-17T12:19:33.926Z,18.80
2023-05-17T12:22:13.734Z,19.10
2023-05-17T12:24:42.849Z,19.60
2023-05-17T12:27:11.249Z,19.00
2023-05-17T12:29:40.150Z,19.30
2023-05-17T12:32:11.070Z,19.50
2023-05-17T12:34:39.316Z,19.40
2023-05-17T12:37:10.987Z,19.50
2023-05-17T12:39:39.438Z,19.70
2023-05-17T12:42:08.457Z,19.70
2023-05-17T12:44:37.241Z,19.50
2023-05-17T12:47:05.227Z,19.90
2023-05-17T12:49:39.656Z,20.20
2023-05-17T12:52:11.204Z,20.30
2023-05-17T12:54:43.014Z,20.40
2023-05-17T12:57:12.946Z,20.30
2023-05-17T12:59:48.749Z,20.00
2023-05-17T13:02:17.398Z,20.10
2023-05-17T13:04:46.481Z,20.00
2023-05-17T13:07:22.790Z,20.30
2023-05-17T13:09:50.778Z,20.20
2023-05-17T13:12:27.927Z,20.50
2023-05-17T13:14:55.876Z,20.40
2023-05-17T13:17:27.282Z,20.20
2023-05-17T13:19:57.163Z,19.90
2023-05-17T13:22:27.272Z,20.30
2023-05-17T13:24:55.954Z,20.10
2023-05-17T13:27:23.963Z,19.90
2023-05-17T13:29:51.894Z,20.80
2023-05-17T13:32:19.919Z,20.90
2023-05-17T13:34:47.914Z,21.20
2023-05-17T13:37:15.872Z,21.70
2023-05-17T13:39:45.225Z,21.50
2023-05-17T13:42:13.745Z,21.30
2023-05-17T13:44:41.909Z,21.30
2023-05-17T13:47:09.802Z,22.00
2023-05-17T13:49:38.013Z,22.40
2023-05-17T13:52:08.686Z,22.50
2023-05-17T13:54:39.156Z,22.60
2023-05-17T13:57:08.861Z,22.50
2023-05-17T13:59:36.923Z,22.70
2023-05-17T14:02:05.158Z,22.40
2023-05-17T14:04:33.252Z,22.90
2023-05-17T14:07:01.757Z,23.20
2023-05-17T14:09:32.884Z,22.70
2023-05-17T14:12:01.374Z,23.20
2023-05-17T14:14:31.335Z,22.60
2023-05-17T14:16:59.251Z,23.10
2023-05-17T14:19:27.455Z,23.00
2023-05-17T14:21:55.555Z,22.90
2023-05-17T14:24:23.738Z,23.90
2023-05-17T14:26:51.669Z,23.70
2023-05-17T14:29:19.640Z,24.00
2023-05-17T14:31:48.901Z,24.20
2023-05-17T14:34:16.950Z,24.60
2023-05-17T14:36:44.893Z,24.20
2023-05-17T14:39:13.241Z,24.30
2023-05-17T14:41:42.744Z,24.30
2023-05-17T14:44:12.161Z,24.20
2023-05-17T14:46:40.100Z,24.40
2023-05-17T14:49:09.527Z,25.10
2023-05-17T14:51:37.786Z,25.10
2023-05-17T14:54:05.884Z,25.50
2023-05-17T14:56:33.823Z,25.60
2023-05-17T14:59:02.818Z,24.70
2023-05-17T15:01:30.732Z,25.10
2023-05-17T15:03:58.991Z,25.40
2023-05-17T15:06:28.331Z,25.10
2023-05-17T15:08:56.291Z,24.70
2023-05-17T15:11:24.196Z,24.30
2023-05-17T15:13:52.847Z,24.40
2023-05-17T15:16:21.048Z,24.20
2023-05-17T15:18:49.202Z,24.40
2023-05-17T15:21:18.990Z,25.00
2023-05-17T15:23:50.641Z,25.50
2023-05-17T15:26:18.404Z,25.00
2023-05-17T15:28:47.176Z,25.70
2023-05-17T15:31:15.085Z,25.80
2023-05-17T15:33:47.204Z,25.50
2023-05-17T15:36:16.372Z,24.70
2023-05-17T15:38:44.475Z,24.90
2023-05-17T15:41:15.926Z,25.80
2023-05-17T15:43:44.060Z,25.80
2023-05-17T15:46:12.585Z,25.50
2023-05-17T15:48:40.568Z,25.00
2023-05-17T15:51:08.585Z,25.60
2023-05-17T15:53:36.664Z,24.50
2023-05-17T15:56:04.925Z,25.10
2023-05-17T15:58:34.157Z,25.00
2023-05-17T16:01:04.245Z,25.40
2023-05-17T16:03:32.373Z,25.50
2023-05-17T16:06:00.735Z,25.80
2023-05-17T16:08:28.672Z,25.50
2023-05-17T16:10:56.533Z,25.00
2023-05-17T16:13:24.995Z,25.00
2023-05-17T16:15:55.367Z,24.40
2023-05-17T16:18:23.334Z,24.30
2023-05-17T16:20:58.755Z,24.70
2023-05-17T16:23:26.744Z,24.80
2023-05-17T16:25:56.007Z,24.30
2023-05-17T16:28:24.630Z,23.70
2023-05-17T16:30:54.410Z,23.50
2023-05-17T16:33:22.442Z,23.10
2023-05-17T16:35:51.433Z,23.20
2023-05-17T16:38:19.431Z,23.50
2023-05-17T16:40:47.436Z,24.10
2023-05-17T16:43:16.456Z,24.30
2023-05-17T16:45:45.574Z,24.60
2023-05-17T16:48:15.983Z,24.60
2023-05-17T16:50:43.926Z,23.90
2023-05-17T16:53:12.202Z,24.00
2023-05-17T16:55:40.098Z,23.60
2023-05-17T16:58:08.017Z,23.80
2023-05-17T17:00:36.069Z,23.60
2023-05-17T17:03:05.934Z,23.20
2023-05-17T17:05:37.721Z,23.40
2023-05-17T17:08:05.723Z,23.70
2023-05-17T17:10:34.696Z,23.80
2023-05-17T17:13:03.403Z,23.60
2023-05-17T17:15:31.359Z,23.80
2023-05-17T17:17:59.394Z,23.80
2023-05-17T17:20:27.591Z,24.10
2023-05-17T17:22:57.409Z,24.20
2023-05-17T17:25:25.582Z,24.30
2023-05-17T17:27:53.539Z,23.90
2023-05-17T17:30:21.676Z,24.10
2023-05-17T17:32:49.726Z,23.60
2023-05-17T17:35:17.881Z,23.80
2023-05-17T17:37:45.852Z,23.20
2023-05-17T17:40:15.280Z,23.00
2023-05-17T17:42:43.172Z,23.30
2023-05-17T17:45:11.598Z,23.70
2023-05-17T17:47:39.561Z,23.40
2023-05-17T17:50:08.804Z,23.70
2023-05-17T17:52:37.221Z,23.00
2023-05-17T17:55:06.022Z,22.90
2023-05-17T17:57:35.310Z,22.60
2023-05-17T18:00:06.085Z,22.30
2023-05-17T18:02:34.087Z,22.40
2023-05-17T18:05:02.269Z,22.00
2023-05-17T18:07:30.319Z,22.20
2023-05-17T18:09:58.504Z,21.90
2023-05-17T18:12:27.120Z,21.60
2023-05-17T18:14:56.608Z,21.40
2023-05-17T18:17:24.728Z,21.50
2023-05-17T18:19:53.496Z,21.40
2023-05-17T18:22:21.361Z,20.90
2023-05-17T18:24:49.397Z,20.90
2023-05-17T18:27:17.289Z,20.80
2023-05-17T18:29:45.186Z,21.20
2023-05-17T18:32:14.567Z,20.40
2023-05-17T18:34:42.561Z,20.30
2023-05-17T18:37:10.499Z,20.40
2023-05-17T18:39:38.423Z,20.30
2023-05-17T18:42:06.830Z,19.70
2023-05-17T18:44:35.270Z,19.60
2023-05-17T18:47:03.287Z,19.40
2023-05-17T18:49:32.619Z,19.40
2023-05-17T18:52:00.546Z,19.00
2023-05-17T18:54:28.455Z,19.40
2023-05-17T18:56:56.433Z,18.50
2023-05-17T18:59:24.364Z,18.20
2023-05-17T19:01:52.278Z,18.80
2023-05-17T19:04:20.315Z,17.80
2023-05-17T19:06:49.615Z,17.60
2023-05-17T19:09:17.531Z,17.40
2023-05-17T19:11:45.410Z,17.80
2023-05-17T19:14:14.709Z,17.40
2023-05-17T19:16:42.679Z,17.00
2023-05-17T19:19:10.675Z,16.90
2023-05-17T19:21:38.657Z,16.80
2023-05-17T19:24:08.270Z,16.60
2023-05-17T19:26:36.286Z,16.30
2023-05-17T19:29:04.163Z,16.80
2023-05-17T19:31:32.164Z,16.00
2023-05-17T19:34:01.634Z,15.80
2023-05-17T19:36:29.630Z,15.90
2023-05-17T19:38:57.564Z,15.40
2023-05-17T19:41:26.847Z,15.30
2023-05-17T19:43:54.732Z,15.20
2023-05-17T19:46:22.683Z,15.00
2023-05-17T19:48:50.963Z,14.90
2023-05-17T19:51:19.377Z,14.70
2023-05-17T19:53:53.441Z,14.60
2023-05-17T19:56:21.603Z,14.40
2023-05-17T19:58:52.031Z,14.20
2023-05-17T20:01:21.325Z,14.10
2023-05-17T20:03:49.460Z,14.00
2023-05-17T20:06:17.499Z,13.90
2023-05-17T20:08:46.380Z,14.20
2023-05-17T20:11:14.818Z,13.80
2023-05-17T20:13:42.695Z,13.60
2023-05-17T20:16:13.579Z,13.50
2023-05-17T20:18:43.511Z,13.40
2023-05-17T20:21:12.757Z,13.40
2023-05-17T20:23:41.138Z,13.30
2023-05-17T20:26:15.976Z,13.20
2023-05-17T20:28:44.418Z,13.10
2023-05-17T20:31:13.849Z,13.00
2023-05-17T20:33:44.005Z,12.80
2023-05-17T20:36:14.193Z,12.80
2023-05-17T20:38:45.080Z,12.80
2023-05-17T20:41:14.843Z,12.50
2023-05-17T20:43:46.128Z,12.40
2023-05-17T20:46:15.907Z,12.20
2023-05-17T20:48:46.376Z,12.30
2023-05-17T20:51:20.264Z,12.10
2023-05-17T20:53:48.197Z,12.00
2023-05-17T20:56:16.195Z,12.00
2023-05-17T20:58:44.203Z,11.90
2023-05-17T21:01:12.157Z,11.90
2023-05-17T21:03:42.045Z,11.70
2023-05-17T21:06:10.083Z,11.60
2023-05-17T21:08:38.461Z,12.50
2023-05-17T21:11:06.418Z,11.50
2023-05-17T21:13:34.424Z,11.40
2023-05-17T21:16:02.669Z,11.50
2023-05-17T21:18:30.660Z,11.30
2023-05-17T21:21:00.643Z,11.20
2023-05-17T21:23:28.628Z,11.10
2023-05-17T21:25:56.503Z,11.00
2023-05-17T21:28:27.844Z,10.90
2023-05-17T21:30:55.892Z,11.10
2023-05-17T21:33:23.742Z,10.80
2023-05-17T21:35:52.085Z,10.80
2023-05-17T21:38:21.374Z,10.60
2023-05-17T21:40:49.275Z,10.60
2023-05-17T21:43:17.143Z,11.10
2023-05-17T21:45:45.141Z,10.50
2023-05-17T21:48:13.132Z,10.50
2023-05-17T21:50:41.163Z,10.40
2023-05-17T21:53:09.115Z,10.30
2023-05-17T21:55:56.193Z,10.30
2023-05-17T21:58:27.552Z,10.20
2023-05-17T22:00:55.554Z,10.10
2023-05-17T22:03:23.577Z,10.10
2023-05-17T22:05:52.537Z,10.10
2023-05-17T22:08:20.557Z,10.00
2023-05-17T22:10:50.432Z,9.90
2023-05-17T22:13:19.090Z,9.90
2023-05-17T22:15:47.190Z,9.80
2023-05-17T22:18:15.298Z,9.80
2023-05-17T22:20:43.290Z,9.70
2023-05-17T22:23:11.190Z,9.70
2023-05-17T22:25:39.223Z,9.60
2023-05-17T22:28:08.610Z,9.50
2023-05-17T22:30:36.534Z,10.10
2023-05-17T22:33:04.627Z,9.50
2023-05-17T22:35:32.706Z,9.40
2023-05-17T22:38:00.581Z,9.30
2023-05-17T22:40:28.785Z,9.80
2023-05-17T22:42:58.165Z,9.70
2023-05-17T22:45:33.418Z,9.20
2023-05-17T22:48:02.827Z,9.10
2023-05-17T22:50:31.519Z,9.10
2023-05-17T22:53:00.110Z,9.00
2023-05-17T22:55:28.625Z,9.00
2023-05-17T22:57:57.415Z,9.00
2023-05-17T23:00:26.707Z,8.90
2023-05-17T23:02:54.720Z,8.90
2023-05-17T23:05:23.139Z,8.80
2023-05-17T23:07:51.121Z,8.80
2023-05-17T23:10:19.611Z,8.80
2023-05-17T23:12:48.510Z,8.70
2023-05-17T23:15:17.211Z,8.70
2023-05-17T23:17:47.350Z,8.60
2023-05-17T23:20:15.370Z,8.60
2023-05-17T23:22:43.996Z,8.60
2023-05-17T23:25:11.979Z,8.60
2023-05-17T23:27:39.910Z,8.50
2023-05-17T23:30:10.098Z,8.50
2023-05-17T23:32:38.142Z,8.50
2023-05-17T23:35:09.635Z,8.40
2023-05-17T23:37:38.008Z,8.40
2023-05-17T23:40:07.415Z,8.40
2023-05-17T23:42:35.527Z,8.30
2023-05-17T23:45:04.026Z,8.30
2023-05-17T23:47:33.875Z,8.30
2023-05-17T23:50:02.864Z,8.20
2023-05-17T23:52:32.442Z,8.20
2023-05-17T23:55:01.507Z,8.10
2023-05-17T23:57:29.468Z,8.20
2023-05-17T23:59:57.428Z,8.90
